createdAt,value
2023-06-04T00:00:27.693Z,7.93
2023-06-04T00:02:55.823Z,8.63
2023-06-04T00:05:26.433Z,8.77
2023-06-04T00:07:55.968Z,8.35
2023-06-04T00:10:24.074Z,8.25
2023-06-04T00:12:52.230Z,8.35
2023-06-04T00:15:20.566Z,7.85
2023-06-04T00:17:48.638Z,7.63
2023-06-04T00:20:16.886Z,7.75
2023-06-04T00:22:45.006Z,7.47
2023-06-04T00:25:14.763Z,7.57
2023-06-04T00:27:42.994Z,7.03
2023-06-04T00:30:12.110Z,7.85
2023-06-04T00:32:40.756Z,7.80
2023-06-04T00:35:10.611Z,8.07
2023-06-04T00:37:38.692Z,7.78
2023-06-04T00:40:07.994Z,8.90
2023-06-04T00:42:37.566Z,9.43
2023-06-04T00:45:06.957Z,9.82
2023-06-04T00:47:35.086Z,9.93
2023-06-04T00:50:03.502Z,9.75
2023-06-04T00:52:31.522Z,8.35
2023-06-04T00:55:00.564Z,7.43
2023-06-04T00:57:28.764Z,7.68
2023-06-04T00:59:58.379Z,7.97
2023-06-04T01:02:28.816Z,8.23
2023-06-04T01:05:05.210Z,7.88
2023-06-04T01:07:33.303Z,7.72
2023-06-04T01:10:01.551Z,8.50
2023-06-04T01:12:29.727Z,7.53
2023-06-04T01:14:59.173Z,7.40
2023-06-04T01:17:38.720Z,5.93
2023-06-04T01:20:22.366Z,5.93
2023-06-04T01:23:05.126Z,5.72
2023-06-04T01:25:40.105Z,5.65
2023-06-04T01:28:09.403Z,5.68
2023-06-04T01:30:44.469Z,5.78
2023-06-04T01:33:13.979Z,5.70
2023-06-04T01:35:42.511Z,5.45
2023-06-04T01:38:11.260Z,5.50
2023-06-04T01:40:40.007Z,5.57
2023-06-04T01:43:08.254Z,5.78
2023-06-04T01:45:36.383Z,5.22
2023-06-04T01:48:07.388Z,4.93
2023-06-04T01:50:35.912Z,5.03
2023-06-04T01:53:04.602Z,5.60
2023-06-04T01:55:34.786Z,5.03
2023-06-04T01:58:03.380Z,4.88
2023-06-04T02:00:31.864Z,4.50
2023-06-04T02:03:00.866Z,4.75
2023-06-04T02:05:30.588Z,5.47
2023-06-04T02:07:58.752Z,4.15
2023-06-04T02:10:27.134Z,4.70
2023-06-04T02:12:57.885Z,4.32
2023-06-04T02:15:27.150Z,4.95
2023-06-04T02:17:59.679Z,4.43
2023-06-04T02:20:28.439Z,4.38
2023-06-04T02:22:58.220Z,4.65
2023-06-04T02:25:26.449Z,4.43
2023-06-04T02:27:54.522Z,4.63
2023-06-04T02:30:22.759Z,5.43
2023-06-04T02:32:52.637Z,5.90
2023-06-04T02:35:22.375Z,6.20
2023-06-04T02:37:50.723Z,6.55
2023-06-04T02:40:20.221Z,6.13
2023-06-04T02:42:48.236Z,5.75
2023-06-04T02:45:16.320Z,5.40
2023-06-04T02:47:44.553Z,5.32
2023-06-04T02:50:14.163Z,4.97
2023-06-04T02:52:44.185Z,5.78
2023-06-04T02:55:13.920Z,5.75
2023-06-04T02:57:44.616Z,5.85
2023-06-04T03:00:14.663Z,4.82
2023-06-04T03:02:44.714Z,5.13
2023-06-04T03:05:14.816Z,5.22
2023-06-04T03:07:46.053Z,5.38
2023-06-04T03:10:15.634Z,4.60
2023-06-04T03:12:45.308Z,4.80
2023-06-04T03:15:14.144Z,4.88
2023-06-04T03:17:43.563Z,4.95
2023-06-04T03:20:12.308Z,4.97
2023-06-04T03:22:40.546Z,5.18
2023-06-04T03:25:09.210Z,4.90
2023-06-04T03:27:37.675Z,4.93
2023-06-04T03:30:08.857Z,5.07
2023-06-04T03:32:37.996Z,4.88
2023-06-04T03:35:06.906Z,4.97
2023-06-04T03:37:35.032Z,5.43
2023-06-04T03:40:07.315Z,4.95
2023-06-04T03:42:35.569Z,4.53
2023-06-04T03:45:03.807Z,5.03
2023-06-04T03:47:33.398Z,5.32
2023-06-04T03:50:01.570Z,5.88
2023-06-04T03:52:29.627Z,5.68
2023-06-04T03:54:57.738Z,5.07
2023-06-04T03:57:25.888Z,5.85
2023-06-04T03:59:55.043Z,5.65
2023-06-04T04:02:23.191Z,5.22
2023-06-04T04:04:55.413Z,5.28
2023-06-04T04:07:23.921Z,4.95
2023-06-04T04:09:51.933Z,5.03
2023-06-04T04:12:20.306Z,5.07
2023-06-04T04:14:48.999Z,5.45
2023-06-04T04:17:17.326Z,4.97
2023-06-04T04:19:45.469Z,5.45
2023-06-04T04:22:18.523Z,5.43
2023-06-04T04:24:46.678Z,5.13
2023-06-04T04:27:16.828Z,5.65
2023-06-04T04:29:48.755Z,5.60
2023-06-04T04:32:17.956Z,5.03
2023-06-04T04:34:53.701Z,5.18
2023-06-04T04:37:23.617Z,4.70
2023-06-04T04:39:53.195Z,4.72
2023-06-04T04:42:21.464Z,4.30
2023-06-04T04:44:50.203Z,3.88
2023-06-04T04:47:18.638Z,3.90
2023-06-04T04:49:49.537Z,3.60
2023-06-04T04:52:18.650Z,3.95
2023-06-04T04:54:48.119Z,3.20
2023-06-04T04:57:16.378Z,3.67
2023-06-04T04:59:44.433Z,4.00
2023-06-04T05:02:12.784Z,3.15
2023-06-04T05:04:40.985Z,3.97
2023-06-04T05:07:09.271Z,3.63
2023-06-04T05:09:37.465Z,3.80
2023-06-04T05:12:07.882Z,4.28
2023-06-04T05:14:36.791Z,4.28
2023-06-04T05:17:05.614Z,4.65
2023-06-04T05:19:34.046Z,6.63
2023-06-04T05:22:02.829Z,18.27
2023-06-04T05:24:31.074Z,4.05
2023-06-04T05:26:59.188Z,3.97
2023-06-04T05:29:28.794Z,4.25
2023-06-04T05:31:57.298Z,3.70
2023-06-04T05:34:25.391Z,4.03
2023-06-04T05:36:53.911Z,3.47
2023-06-04T05:39:25.062Z,3.13
2023-06-04T05:41:53.284Z,3.55
2023-06-04T05:44:21.386Z,3.72
2023-06-04T05:46:51.413Z,3.50
2023-06-04T05:49:20.834Z,4.07
2023-06-04T05:51:49.033Z,3.95
2023-06-04T05:54:17.284Z,3.30
2023-06-04T05:56:45.385Z,4.13
2023-06-04T05:59:13.444Z,4.13
2023-06-04T06:01:41.530Z,4.00
2023-06-04T06:04:11.777Z,3.85
2023-06-04T06:06:40.251Z,3.65
2023-06-04T06:09:10.069Z,3.72
2023-06-04T06:11:38.192Z,5.15
2023-06-04T06:14:06.333Z,4.07
2023-06-04T06:16:34.656Z,3.80
2023-06-04T06:19:03.295Z,3.72
2023-06-04T06:21:32.742Z,4.00
2023-06-04T06:24:01.368Z,3.80
2023-06-04T06:26:30.005Z,3.78
2023-06-04T06:28:58.534Z,4.60
2023-06-04T06:31:27.323Z,3.95
2023-06-04T06:33:55.569Z,3.85
2023-06-04T06:36:23.945Z,3.83
2023-06-04T06:38:53.534Z,3.85
2023-06-04T06:41:22.061Z,3.88
2023-06-04T06:43:50.289Z,4.28
2023-06-04T06:46:18.576Z,4.03
2023-06-04T06:48:46.835Z,4.20
2023-06-04T06:51:15.125Z,4.45
2023-06-04T06:53:44.185Z,4.13
2023-06-04T06:56:13.756Z,4.57
2023-06-04T06:58:41.905Z,4.40
2023-06-04T07:01:10.300Z,4.00
2023-06-04T07:03:39.823Z,46.40
2023-06-04T07:06:08.440Z,7.07
2023-06-04T07:08:36.657Z,4.57
2023-06-04T07:11:05.771Z,3.80
2023-06-04T07:13:36.389Z,3.88
2023-06-04T07:16:04.901Z,4.18
2023-06-04T07:18:33.604Z,4.07
2023-06-04T07:21:01.739Z,4.13
2023-06-04T07:23:30.045Z,4.53
2023-06-04T07:25:58.547Z,4.72
2023-06-04T07:28:26.635Z,4.15
2023-06-04T07:30:56.074Z,4.30
2023-06-04T07:33:24.265Z,4.10
2023-06-04T07:35:52.586Z,4.10
2023-06-04T07:38:21.343Z,4.15
2023-06-04T07:40:49.947Z,5.07
2023-06-04T07:43:17.987Z,4.35
2023-06-04T07:45:46.229Z,4.18
2023-06-04T07:48:15.708Z,4.25
2023-06-04T07:50:43.856Z,4.68
2023-06-04T07:53:12.062Z,4.47
2023-06-04T07:55:40.108Z,4.18
2023-06-04T07:58:08.213Z,5.13
2023-06-04T08:00:36.505Z,4.82
2023-06-04T08:03:04.745Z,4.40
2023-06-04T08:05:34.999Z,4.55
2023-06-04T08:08:04.612Z,4.72
2023-06-04T08:10:32.799Z,4.55
2023-06-04T08:13:00.855Z,5.00
2023-06-04T08:15:28.925Z,4.97
2023-06-04T08:17:57.367Z,4.28
2023-06-04T08:20:27.537Z,4.32
2023-06-04T08:22:57.115Z,7.35
2023-06-04T08:25:25.257Z,6.88
2023-06-04T08:27:53.357Z,4.85
2023-06-04T08:30:21.682Z,4.78
2023-06-04T08:32:49.847Z,4.32
2023-06-04T08:35:18.183Z,4.82
2023-06-04T08:37:46.234Z,5.32
2023-06-04T08:40:15.839Z,5.60
2023-06-04T08:42:46.108Z,4.40
2023-06-04T08:45:16.481Z,4.95
2023-06-04T08:47:46.850Z,4.80
2023-06-04T08:50:18.870Z,4.65
2023-06-04T08:52:47.124Z,4.70
2023-06-04T08:55:16.753Z,4.32
2023-06-04T08:57:45.658Z,4.38
2023-06-04T09:00:14.811Z,4.88
2023-06-04T09:02:43.367Z,8.20
2023-06-04T09:05:13.629Z,4.03
2023-06-04T09:07:43.270Z,6.38
2023-06-04T09:10:15.035Z,4.55
2023-06-04T09:12:45.844Z,4.30
2023-06-04T09:15:13.902Z,4.15
2023-06-04T09:17:42.075Z,8.98
2023-06-04T09:20:20.806Z,5.40
2023-06-04T09:22:48.967Z,9.38
2023-06-04T09:25:26.390Z,3.97
2023-06-04T09:28:08.249Z,4.57
2023-06-04T09:30:36.455Z,3.75
2023-06-04T09:33:09.555Z,4.97
2023-06-04T09:35:37.886Z,3.20
2023-06-04T09:38:07.538Z,2.83
2023-06-04T09:40:39.416Z,11.80
2023-06-04T09:43:09.213Z,11.15
2023-06-04T09:45:37.692Z,2.58
2023-06-04T09:48:09.957Z,3.42
2023-06-04T09:50:40.423Z,3.85
2023-06-04T09:53:16.670Z,3.03
2023-06-04T09:55:44.996Z,3.45
2023-06-04T09:58:15.356Z,3.42
2023-06-04T10:00:47.043Z,3.05
2023-06-04T10:03:17.796Z,2.65
2023-06-04T10:05:46.485Z,2.92
2023-06-04T10:08:19.583Z,3.17
2023-06-04T10:10:51.738Z,2.72
2023-06-04T10:13:21.849Z,4.95
2023-06-04T10:15:51.012Z,3.15
2023-06-04T10:18:19.782Z,3.22
2023-06-04T10:20:48.522Z,5.03
2023-06-04T10:23:18.922Z,2.80
2023-06-04T10:25:48.771Z,2.70
2023-06-04T10:28:18.113Z,4.10
2023-06-04T10:30:47.827Z,5.03
2023-06-04T10:33:19.312Z,3.08
2023-06-04T10:35:47.894Z,10.60
2023-06-04T10:38:17.814Z,3.90
2023-06-04T10:40:46.045Z,7.38
2023-06-04T10:43:17.166Z,8.63
2023-06-04T10:45:45.441Z,15.93
2023-06-04T10:48:15.660Z,2.78
2023-06-04T10:50:56.295Z,9.35
2023-06-04T10:53:24.718Z,11.27
2023-06-04T10:55:52.832Z,8.90
2023-06-04T10:58:21.831Z,2.63
2023-06-04T11:00:51.590Z,2.70
2023-06-04T11:03:22.380Z,6.38
2023-06-04T11:05:51.749Z,6.88
2023-06-04T11:09:25.240Z,2.72
2023-06-04T11:11:59.496Z,16.83
2023-06-04T11:14:27.648Z,4.68
2023-06-04T11:16:56.009Z,2.38
2023-06-04T11:19:25.776Z,4.25
2023-06-04T11:21:53.850Z,5.78
2023-06-04T11:24:21.972Z,3.50
2023-06-04T11:27:00.239Z,4.55
2023-06-04T11:29:37.128Z,2.88
2023-06-04T11:32:05.772Z,7.10
2023-06-04T11:34:35.368Z,3.30
2023-06-04T11:37:10.525Z,4.63
2023-06-04T11:39:40.789Z,3.67
2023-06-04T11:42:09.690Z,3.60
2023-06-04T11:44:38.126Z,4.22
2023-06-04T11:47:08.907Z,17.98
2023-06-04T11:49:39.074Z,3.30
2023-06-04T11:52:07.927Z,7.40
2023-06-04T11:54:39.572Z,2.88
2023-06-04T11:57:08.215Z,28.45
2023-06-04T11:59:37.157Z,2.80
2023-06-04T12:02:05.847Z,3.35
2023-06-04T12:04:34.014Z,4.30
2023-06-04T12:07:07.310Z,6.43
2023-06-04T12:09:37.323Z,5.77
2023-06-04T12:12:06.907Z,14.38
2023-06-04T12:14:35.242Z,3.30
2023-06-04T12:17:04.775Z,6.43
2023-06-04T12:19:32.924Z,4.05
2023-06-04T12:22:04.085Z,4.97
2023-06-04T12:24:32.453Z,3.22
2023-06-04T12:27:05.437Z,3.97
2023-06-04T12:29:33.957Z,18.23
2023-06-04T12:32:11.950Z,4.43
2023-06-04T12:34:41.981Z,10.77
2023-06-04T12:37:11.475Z,14.50
2023-06-04T12:39:39.640Z,3.53
2023-06-04T12:42:09.500Z,4.85
2023-06-04T12:44:38.414Z,5.82
2023-06-04T12:47:09.904Z,8.85
2023-06-04T12:49:38.249Z,27.48
2023-06-04T12:52:07.087Z,4.47
2023-06-04T12:54:36.614Z,5.55
2023-06-04T12:57:04.897Z,9.68
2023-06-04T12:59:32.974Z,48.97
2023-06-04T13:02:01.201Z,35.17
2023-06-04T13:04:29.439Z,8.00
2023-06-04T13:07:00.507Z,7.22
2023-06-04T13:09:29.623Z,35.42
2023-06-04T13:11:59.454Z,10.20
2023-06-04T13:14:27.686Z,14.40
2023-06-04T13:16:55.974Z,21.00
2023-06-04T13:19:27.688Z,34.08
2023-06-04T13:21:56.133Z,28.35
2023-06-04T13:24:24.320Z,25.77
2023-06-04T13:26:52.304Z,47.90
2023-06-04T13:29:23.416Z,45.42
2023-06-04T13:31:51.667Z,68.53
2023-06-04T13:34:27.571Z,32.15
2023-06-04T13:36:57.244Z,31.85
2023-06-04T13:39:25.317Z,49.90
2023-06-04T13:41:53.320Z,42.13
2023-06-04T13:44:27.273Z,40.72
2023-06-04T13:46:55.523Z,41.42
2023-06-04T13:49:23.567Z,70.90
2023-06-04T13:51:51.613Z,50.80
2023-06-04T13:54:19.569Z,42.97
2023-06-04T13:56:48.459Z,40.00
2023-06-04T13:59:16.556Z,51.58
2023-06-04T14:01:46.036Z,44.50
2023-06-04T14:04:14.133Z,71.32
2023-06-04T14:06:42.285Z,43.38
2023-06-04T14:09:10.626Z,52.92
2023-06-04T14:11:40.882Z,41.47
2023-06-04T14:14:09.092Z,48.47
2023-06-04T14:16:37.201Z,43.10
2023-06-04T14:19:06.867Z,54.70
2023-06-04T14:21:35.034Z,41.40
2023-06-04T14:24:03.112Z,39.53
2023-06-04T14:26:31.557Z,38.28
2023-06-04T14:28:59.831Z,37.65
2023-06-04T14:31:27.961Z,31.92
2023-06-04T14:33:56.647Z,28.45
2023-06-04T14:36:26.263Z,62.03
2023-06-04T14:38:54.446Z,28.73
2023-06-04T14:41:22.778Z,24.80
2023-06-04T14:43:50.900Z,16.20
2023-06-04T14:46:19.216Z,18.25
2023-06-04T14:48:47.429Z,19.83
2023-06-04T14:51:15.750Z,33.25
2023-06-04T14:53:45.516Z,21.60
2023-06-04T14:56:13.787Z,25.15
2023-06-04T14:58:41.842Z,27.90
2023-06-04T15:01:11.529Z,53.13
2023-06-04T15:03:41.339Z,51.22
2023-06-04T15:06:18.843Z,131.85
2023-06-04T15:08:49.771Z,159.85
2023-06-04T15:11:17.850Z,146.10
2023-06-04T15:13:46.103Z,183.00
2023-06-04T15:16:14.335Z,226.85
2023-06-04T15:18:42.658Z,139.88
2023-06-04T15:21:11.048Z,91.40
2023-06-04T15:23:39.385Z,83.90
2023-06-04T15:26:09.126Z,280.35
2023-06-04T15:28:37.328Z,151.63
2023-06-04T15:31:05.463Z,131.32
2023-06-04T15:33:33.703Z,222.57
2023-06-04T15:36:01.803Z,118.78
2023-06-04T15:38:31.824Z,50.25
2023-06-04T15:41:00.272Z,189.45
2023-06-04T15:43:29.909Z,156.50
2023-06-04T15:45:58.025Z,49.67
2023-06-04T15:48:28.643Z,75.35
2023-06-04T15:50:57.058Z,275.23
2023-06-04T15:53:25.152Z,173.68
2023-06-04T15:55:53.299Z,233.10
2023-06-04T15:58:21.345Z,257.75
2023-06-04T16:00:50.784Z,95.38
2023-06-04T16:03:18.915Z,143.75
2023-06-04T16:05:47.059Z,126.22
2023-06-04T16:08:15.527Z,117.00
2023-06-04T16:10:45.902Z,110.05
2023-06-04T16:13:14.504Z,157.27
2023-06-04T16:15:43.153Z,80.65
2023-06-04T16:18:12.636Z,122.43
2023-06-04T16:20:40.860Z,193.52
2023-06-04T16:23:08.999Z,162.57
2023-06-04T16:25:37.542Z,80.53
2023-06-04T16:28:06.752Z,44.70
2023-06-04T16:30:34.970Z,117.25
2023-06-04T16:33:03.206Z,111.50
2023-06-04T16:35:33.102Z,159.90
2023-06-04T16:38:01.675Z,93.28
2023-06-04T16:40:29.848Z,95.78
2023-06-04T16:42:58.202Z,197.82
2023-06-04T16:45:26.353Z,80.63
2023-06-04T16:47:54.691Z,210.95
2023-06-04T16:50:22.991Z,66.65
2023-06-04T16:52:52.622Z,47.90
2023-06-04T16:55:20.976Z,97.35
2023-06-04T16:57:49.126Z,140.15
2023-06-04T17:00:25.794Z,90.25
2023-06-04T17:02:58.096Z,65.93
2023-06-04T17:05:26.687Z,51.83
2023-06-04T17:07:56.334Z,50.13
2023-06-04T17:10:29.794Z,119.70
2023-06-04T17:12:57.799Z,52.35
2023-06-04T17:15:25.953Z,45.45
2023-06-04T17:17:55.824Z,84.30
2023-06-04T17:20:23.986Z,12.25
2023-06-04T17:22:52.072Z,30.17
2023-06-04T17:25:21.571Z,99.20
2023-06-04T17:27:52.034Z,32.67
2023-06-04T17:30:21.050Z,14.68
2023-06-04T17:32:49.446Z,9.25
2023-06-04T17:35:18.946Z,44.30
2023-06-04T17:37:47.005Z,17.80
2023-06-04T17:40:15.068Z,8.65
2023-06-04T17:42:47.682Z,6.90
2023-06-04T17:45:16.292Z,23.30
2023-06-04T17:47:44.455Z,9.27
2023-06-04T17:50:12.864Z,3.90
2023-06-04T17:52:41.023Z,4.03
2023-06-04T17:55:10.207Z,4.72
2023-06-04T17:57:38.331Z,4.57
2023-06-04T18:00:09.477Z,4.05
2023-06-04T18:02:37.605Z,3.67
2023-06-04T18:05:06.197Z,3.30
2023-06-04T18:07:34.289Z,3.90
2023-06-04T18:10:02.503Z,3.60
2023-06-04T18:12:31.922Z,3.38
2023-06-04T18:15:01.339Z,3.63
2023-06-04T18:17:30.865Z,3.97
2023-06-04T18:19:59.054Z,3.95
2023-06-04T18:22:27.080Z,4.35
2023-06-04T18:24:55.134Z,3.70
2023-06-04T18:27:23.669Z,4.80
2023-06-04T18:29:51.884Z,4.15
2023-06-04T18:32:20.359Z,4.40
2023-06-04T18:34:49.790Z,4.72
2023-06-04T18:37:17.820Z,10.30
2023-06-04T18:39:45.935Z,9.38
2023-06-04T18:42:25.779Z,8.18
2023-06-04T18:44:58.698Z,6.18
2023-06-04T18:47:27.096Z,4.80
2023-06-04T18:49:57.459Z,4.80
2023-06-04T18:52:25.749Z,4.50
2023-06-04T18:54:53.862Z,4.82
2023-06-04T18:57:21.947Z,4.22
2023-06-04T18:59:50.185Z,4.40
2023-06-04T19:02:18.293Z,4.18
2023-06-04T19:04:47.408Z,4.28
2023-06-04T19:07:16.905Z,4.20
2023-06-04T19:09:45.307Z,4.70
2023-06-04T19:12:13.451Z,3.95
2023-06-04T19:14:41.626Z,4.40
2023-06-04T19:17:09.692Z,5.07
2023-06-04T19:19:37.796Z,4.57
2023-06-04T19:22:06.453Z,4.82
2023-06-04T19:24:36.319Z,4.90
2023-06-04T19:27:04.822Z,5.30
2023-06-04T19:29:32.950Z,4.95
2023-06-04T19:32:01.543Z,5.70
2023-06-04T19:34:29.918Z,6.15
2023-06-04T19:36:57.999Z,5.35
2023-06-04T19:39:26.222Z,4.53
2023-06-04T19:41:56.116Z,5.20
2023-06-04T19:44:24.210Z,5.35
2023-06-04T19:46:52.292Z,5.63
2023-06-04T19:49:20.917Z,5.00
2023-06-04T19:51:49.288Z,4.65
2023-06-04T19:54:17.427Z,6.03
2023-06-04T19:56:45.707Z,6.43
2023-06-04T19:59:15.208Z,6.70
2023-06-04T20:01:44.081Z,5.22
2023-06-04T20:04:12.381Z,5.70
2023-06-04T20:06:40.646Z,5.53
2023-06-04T20:09:09.518Z,6.13
2023-06-04T20:11:37.713Z,5.82
2023-06-04T20:14:06.797Z,5.40
2023-06-04T20:16:36.357Z,6.30
2023-06-04T20:19:04.602Z,5.82
2023-06-04T20:21:34.102Z,6.97
2023-06-04T20:24:03.910Z,6.28
2023-06-04T20:26:33.968Z,6.13
2023-06-04T20:29:02.596Z,5.88
2023-06-04T20:31:30.814Z,5.78
2023-06-04T20:34:00.708Z,6.47
2023-06-04T20:36:28.895Z,6.65
2023-06-04T20:38:57.407Z,7.18
2023-06-04T20:41:25.587Z,7.05
2023-06-04T20:43:54.544Z,7.10
2023-06-04T20:46:23.614Z,7.22
2023-06-04T20:48:52.158Z,7.22
2023-06-04T20:51:22.468Z,6.97
2023-06-04T20:53:51.862Z,7.80
2023-06-04T20:56:20.006Z,7.65
2023-06-04T20:58:49.921Z,7.20
2023-06-04T21:01:18.076Z,6.43
2023-06-04T21:03:47.142Z,6.80
2023-06-04T21:06:15.761Z,7.90
2023-06-04T21:08:45.284Z,6.60
2023-06-04T21:11:13.406Z,5.85
2023-06-04T21:13:41.409Z,6.10
2023-06-04T21:16:09.572Z,6.03
2023-06-04T21:18:37.827Z,7.10
2023-06-04T21:21:06.118Z,6.03
2023-06-04T21:23:34.322Z,6.45
2023-06-04T21:26:03.736Z,6.35
2023-06-04T21:28:32.006Z,6.55
2023-06-04T21:31:00.090Z,5.63
2023-06-04T21:33:28.857Z,5.85
2023-06-04T21:35:56.942Z,6.15
2023-06-04T21:38:24.988Z,5.82
2023-06-04T21:40:53.141Z,5.75
2023-06-04T21:43:22.666Z,5.93
2023-06-04T21:45:51.308Z,6.35
2023-06-04T21:48:19.436Z,5.95
2023-06-04T21:50:47.609Z,6.45
2023-06-04T21:53:15.890Z,6.65
2023-06-04T21:55:44.088Z,6.10
2023-06-04T21:58:12.412Z,5.60
2023-06-04T22:00:41.989Z,5.63
2023-06-04T22:03:10.163Z,5.32
2023-06-04T22:05:38.711Z,5.88
2023-06-04T22:08:06.982Z,5.13
2023-06-04T22:10:35.203Z,5.35
2023-06-04T22:13:03.328Z,5.75
2023-06-04T22:15:31.497Z,5.60
2023-06-04T22:18:01.224Z,6.07
2023-06-04T22:20:29.363Z,6.05
2023-06-04T22:22:57.424Z,5.40
2023-06-04T22:25:25.491Z,6.20
2023-06-04T22:27:53.578Z,6.35
2023-06-04T22:30:21.621Z,5.75
2023-06-04T22:32:49.841Z,6.15
2023-06-04T22:35:19.908Z,6.03
2023-06-04T22:37:48.041Z,5.65
2023-06-04T22:40:16.157Z,5.75
2023-06-04T22:42:44.202Z,5.72
2023-06-04T22:45:12.737Z,6.00
2023-06-04T22:47:40.926Z,7.43
2023-06-04T22:50:09.707Z,6.72
2023-06-04T22:52:41.104Z,6.95
2023-06-04T22:55:10.313Z,7.13
2023-06-04T22:57:39.148Z,7.07
2023-06-04T23:00:09.148Z,8.00
2023-06-04T23:02:37.362Z,7.15
2023-06-04T23:05:06.138Z,6.32
2023-06-04T23:07:34.661Z,7.97
2023-06-04T23:10:05.798Z,7.85
2023-06-04T23:12:33.965Z,8.18
2023-06-04T23:15:02.072Z,6.38
2023-06-04T23:17:30.146Z,7.03
2023-06-04T23:19:58.215Z,6.85
2023-06-04T23:22:26.508Z,7.32
2023-06-04T23:24:54.840Z,7.78
2023-06-04T23:27:24.330Z,6.85
2023-06-04T23:29:52.492Z,8.45
2023-06-04T23:32:20.677Z,7.22
2023-06-04T23:34:48.988Z,7.10
2023-06-04T23:37:17.028Z,7.68
2023-06-04T23:39:45.432Z,7.88
2023-06-04T23:42:13.586Z,8.63
2023-06-04T23:44:43.062Z,8.23
2023-06-04T23:47:11.134Z,8.77
2023-06-04T23:49:39.314Z,8.95
2023-06-04T23:52:07.887Z,9.15
2023-06-04T23:54:35.937Z,8.95
2023-06-04T23:57:04.121Z,9.15
2023-06-04T23:59:32.276Z,8.60
